Bellemont, AZ

7:59 AM MST on August 29, 2014 (GMT -0700)
Bow and Arrow | Change Station
CLOSE
Current Station
Personal Weather Station
Location: Flagstaff, AZ
Elevation: 6900 ft
Nearby Weather Stations

Elev 6900 ft 35.16 °N, 111.66 °W | Updated 17 seconds ago

Clear
Clear
51.4 °F
Feels Like 51.4 °F
N
0.0
Wind Variable Wind from NE
Gusts 0.0 mph

Today
High -- | Low -- °F
--% Chance of Precip.
Yesterday
High -- | Low -- °F
Precip. -- in
5:57 AM 6:58 PM
Waxing Crescent, 14% visible
Pressure 30.03 in
Visibility 10.0 miles
Clouds Clear
Dew Point 27 °F
Humidity 39%
Rainfall 0.00 in
Snow Depth 1 in
UV 2 out of 12
Pollen 6.30 out of 12
Air Quality Not available.
Flu Activity Not available.
METAR KFLG 291457Z 00000KT 10SM CLR 15/07 A3030 RMK AO2 SLP169 T01500072 51004

More Conditions Fewer Conditions

Pressure 30.03 in
Visibility 10.0 miles
Clouds Clear
Dew Point 27 °F
Humidity 39%
Rainfall 0.00 in
Snow Depth 1 in
UV 2 out of 12
Pollen 6.30 out of 12
Air Quality Not available.
Flu Activity Not available.
METAR KFLG 291457Z 00000KT 10SM CLR 15/07 A3030 RMK AO2 SLP169 T01500072 51004

More Conditions Fewer Conditions

10-Day Weather Forecast

Almanac

Astronomy

Aug. 29, 2014 Rise Set
Actual Time 5:57 AM MST 6:58 PM MST
Civil Twilight 5:31 AM MST 7:24 PM MST
Nautical Twilight 5:00 AM MST 7:55 PM MST
Astronomical Twilight 4:28 AM MST 8:26 PM MST
Moon 9:40 AM MST 9:08 PM MST
Length of Visible Light 13h 52m
Length of Day
13h 00m
Tomorrow will be 2m 6s shorter.
Waxing Crescent, 14% of the Moon is Illuminated
Today
Waxing Crescent
Sep 2
First Quarter
Sep 8
Full
Sep 15
Last Quarter
Sep 24
New

Today's Extremes

State Highs State Lows

Community

WunderPhotos

Upload Photos

1,748,258 photos uploaded!

Nearby

Snow Depth

Station Depth Elevation
White Horse Lake 1 in 7180 ft
Snowslide Canyon 0 in 9730 ft
Mormon Mountain 0 in 7500 ft
Promontory 0 in 7930 ft
Workman Creek 1 in 6900 ft

Earthquake Activity

City Distance Mag. Time & Date
No recent earthquake activity has been reported nearby.
Minimum magnitude displayed is 2.5.

Coastal Water Temperatures

Place Temperature
No Stations Reporting

Nearby Weather Stations